Time;durP1;ratioP1;P1;durP2;ratioP2;P2;SDS_P1;SDS_P2;PMS_P1;PMS_P2;Temp;Humidity;BMP_temperature;BMP_pressure;BME280_temperature;BME280_humidity;BME280_pressure;Samples;Min_cycle;Max_cycle;Signal;HPM_P1;HPM_P2
2022/08/25 00:00:19;;;;;;;1.50;1.50;;;;;;;;;;5031225;28;20224;-56
2022/08/25 00:02:45;;;;;;;1.50;1.50;;;;;;;;;;5042548;28;20220;-56
2022/08/25 00:05:11;;;;;;;1.45;1.45;;;;;;;;;;5044025;28;20281;-56
2022/08/25 00:07:37;;;;;;;1.60;1.60;;;;;;;;;;5032273;28;20604;-56
2022/08/25 00:10:04;;;;;;;1.50;1.50;;;;;;;;;;5022378;28;20658;-56
2022/08/25 00:12:30;;;;;;;1.67;1.67;;;;;;;;;;5022431;28;20231;-56
2022/08/25 00:14:56;;;;;;;1.77;1.70;;;;;;;;;;5019374;28;20333;-56
2022/08/25 00:17:22;;;;;;;1.90;1.80;;;;;;;;;;4999683;28;20319;-56
2022/08/25 00:19:48;;;;;;;1.70;1.70;;;;;;;;;;5011596;28;20220;-55
2022/08/25 00:22:14;;;;;;;1.60;1.60;;;;;;;;;;5035808;28;20231;-56
2022/08/25 00:24:40;;;;;;;1.60;1.60;;;;;;;;;;5000005;28;20227;-56
2022/08/25 00:27:06;;;;;;;1.75;1.70;;;;;;;;;;5035399;28;20705;-56
2022/08/25 00:29:32;;;;;;;2.00;1.90;;;;;;;;;;5038113;28;20609;-56
2022/08/25 00:31:58;;;;;;;1.70;1.70;;;;;;;;;;5033453;28;20623;-56
2022/08/25 00:34:26;;;;;;;1.80;1.70;;;;;;;;;;5042885;28;20311;-56
2022/08/25 00:36:52;;;;;;;1.90;1.80;;;;;;;;;;5037571;28;20607;-56
2022/08/25 00:39:19;;;;;;;1.83;1.75;;;;;;;;;;5034863;28;20228;-56
2022/08/25 00:41:46;;;;;;;1.02;1.02;;;;;;;;;;5020060;28;20337;-56
2022/08/25 00:44:12;;;;;;;1.00;1.00;;;;;;;;;;5031135;28;20225;-56
2022/08/25 00:46:40;;;;;;;0.90;0.90;;;;;;;;;;5035857;28;20227;-56
2022/08/25 00:49:10;;;;;;;0.98;0.98;;;;;;;;;;5024697;28;20272;-56
2022/08/25 00:51:38;;;;;;;0.90;0.90;;;;;;;;;;5045981;28;20658;-56
2022/08/25 00:54:04;;;;;;;0.93;0.93;;;;;;;;;;5021278;28;20229;-56
2022/08/25 00:56:30;;;;;;;0.95;0.95;;;;;;;;;;5031805;28;20318;-56
2022/08/25 00:58:57;;;;;;;0.90;0.90;;;;;;;;;;5032308;28;20737;-56
2022/08/25 01:01:23;;;;;;;0.90;0.90;;;;;;;;;;5045826;28;20233;-56
2022/08/25 01:03:49;;;;;;;0.90;0.90;;;;;;;;;;5033548;28;20995;-56
2022/08/25 01:06:15;;;;;;;1.00;1.00;;;;;;;;;;5029438;28;20709;-56
2022/08/25 01:08:41;;;;;;;1.00;1.00;;;;;;;;;;5021274;28;20327;-56
2022/08/25 01:11:08;;;;;;;1.00;1.00;;;;;;;;;;5030919;28;21179;-55
2022/08/25 01:13:43;;;;;;;1.00;1.00;;;;;;;;;;5019045;28;20224;-56
2022/08/25 01:16:09;;;;;;;0.90;0.90;;;;;;;;;;5025599;28;20271;-56
2022/08/25 01:19:02;;;;;;;0.90;0.90;;;;;;;;;;5010746;28;20247;-56
2022/08/25 01:21:28;;;;;;;0.90;0.90;;;;;;;;;;5007326;28;20270;-56
2022/08/25 01:23:54;;;;;;;1.00;1.00;;;;;;;;;;5014251;28;20253;-56
2022/08/25 01:26:24;;;;;;;0.90;0.90;;;;;;;;;;5031016;28;20235;-56
2022/08/25 01:31:35;;;;;;;0.90;0.90;;;;;;;;;;5013694;28;20705;-56
2022/08/25 01:34:01;;;;;;;0.90;0.90;;;;;;;;;;5026401;28;20786;-56
2022/08/25 01:36:28;;;;;;;1.10;1.10;;;;;;;;;;5033125;28;20225;-56
2022/08/25 01:38:55;;;;;;;1.00;1.00;;;;;;;;;;5018821;28;20325;-55
2022/08/25 01:41:41;;;;;;;1.10;1.10;;;;;;;;;;5020285;28;20804;-56
2022/08/25 01:44:07;;;;;;;1.00;1.00;;;;;;;;;;5000576;28;20916;-56
2022/08/25 01:46:33;;;;;;;1.00;1.00;;;;;;;;;;5022039;28;20225;-56
2022/08/25 01:49:00;;;;;;;0.90;0.90;;;;;;;;;;5016854;28;21225;-56
2022/08/25 01:51:27;;;;;;;1.10;1.10;;;;;;;;;;5040705;28;20609;-56
2022/08/25 01:53:53;;;;;;;1.00;1.00;;;;;;;;;;5038975;28;20666;-56
2022/08/25 01:56:19;;;;;;;1.00;1.00;;;;;;;;;;5017968;28;20628;-56
2022/08/25 01:58:46;;;;;;;0.80;0.80;;;;;;;;;;5022600;28;20232;-56
2022/08/25 02:01:25;;;;;;;0.93;0.93;;;;;;;;;;5028451;28;20300;-56
2022/08/25 02:03:52;;;;;;;1.00;1.00;;;;;;;;;;5023199;28;20245;-56
2022/08/25 02:06:23;;;;;;;0.90;0.90;;;;;;;;;;5002330;28;20228;-55
2022/08/25 02:08:52;;;;;;;0.90;0.90;;;;;;;;;;5010420;28;20233;-56
2022/08/25 02:11:18;;;;;;;0.90;0.90;;;;;;;;;;5022816;28;20576;-56
2022/08/25 02:13:44;;;;;;;0.90;0.90;;;;;;;;;;5022196;28;20224;-56
2022/08/25 02:16:10;;;;;;;0.90;0.90;;;;;;;;;;5001775;28;20299;-56
2022/08/25 02:18:36;;;;;;;0.90;0.90;;;;;;;;;;5025470;28;20253;-55
2022/08/25 02:21:02;;;;;;;0.90;0.90;;;;;;;;;;5022364;28;20901;-56
2022/08/25 02:23:28;;;;;;;0.80;0.80;;;;;;;;;;5016655;28;20600;-56
2022/08/25 02:25:56;;;;;;;0.80;0.80;;;;;;;;;;5017420;28;20582;-56
2022/08/25 02:28:21;;;;;;;0.90;0.90;;;;;;;;;;5048205;28;20235;-56
2022/08/25 02:30:47;;;;;;;1.00;1.00;;;;;;;;;;5014826;28;20764;-56
2022/08/25 02:33:13;;;;;;;0.90;0.90;;;;;;;;;;5033966;28;20865;-56
2022/08/25 02:35:39;;;;;;;0.80;0.80;;;;;;;;;;5033427;28;20781;-56
2022/08/25 02:38:06;;;;;;;0.80;0.80;;;;;;;;;;5033914;28;20235;-57
2022/08/25 02:40:32;;;;;;;0.90;0.90;;;;;;;;;;5042012;28;20255;-55
2022/08/25 02:42:57;;;;;;;0.90;0.90;;;;;;;;;;5028434;28;20704;-56
2022/08/25 02:45:23;;;;;;;0.90;0.90;;;;;;;;;;5033734;28;20254;-56
2022/08/25 02:47:49;;;;;;;0.90;0.90;;;;;;;;;;5031850;28;20226;-56
2022/08/25 02:50:15;;;;;;;0.90;0.90;;;;;;;;;;5031013;28;20570;-55
2022/08/25 02:52:42;;;;;;;0.90;0.90;;;;;;;;;;5036174;28;20277;-56
2022/08/25 02:55:08;;;;;;;0.83;0.83;;;;;;;;;;5013720;28;20787;-56
2022/08/25 02:57:34;;;;;;;0.80;0.80;;;;;;;;;;5023858;28;20664;-56
2022/08/25 03:00:00;;;;;;;0.90;0.90;;;;;;;;;;5016796;28;20219;-56
2022/08/25 03:02:26;;;;;;;0.90;0.90;;;;;;;;;;5013757;28;20293;-56
2022/08/25 03:04:52;;;;;;;0.80;0.80;;;;;;;;;;5017475;28;20223;-56
2022/08/25 03:07:19;;;;;;;1.00;1.00;;;;;;;;;;5016419;28;20236;-56
2022/08/25 03:09:44;;;;;;;1.40;1.40;;;;;;;;;;5017516;28;20239;-56
2022/08/25 03:12:11;;;;;;;1.10;1.10;;;;;;;;;;5035858;28;20224;-56
2022/08/25 03:14:38;;;;;;;1.00;1.00;;;;;;;;;;5030571;28;20302;-56
2022/08/25 03:17:04;;;;;;;1.03;1.03;;;;;;;;;;5016002;28;20295;-56
2022/08/25 03:19:30;;;;;;;0.90;0.90;;;;;;;;;;5014170;28;20338;-56
2022/08/25 03:21:57;;;;;;;0.90;0.90;;;;;;;;;;5022472;28;20518;-56
2022/08/25 03:24:23;;;;;;;0.80;0.80;;;;;;;;;;5017819;28;20225;-56
2022/08/25 03:26:55;;;;;;;1.00;1.00;;;;;;;;;;5009467;28;20540;-55
2022/08/25 03:29:25;;;;;;;1.00;1.00;;;;;;;;;;5014939;28;20239;-56
2022/08/25 03:31:51;;;;;;;1.20;1.20;;;;;;;;;;5025420;28;20343;-56
2022/08/25 03:34:17;;;;;;;1.00;1.00;;;;;;;;;;5015971;28;20321;-56
2022/08/25 03:36:44;;;;;;;1.50;1.50;;;;;;;;;;5016461;28;20707;-56
2022/08/25 03:39:10;;;;;;;1.60;1.60;;;;;;;;;;5002140;28;21199;-55
2022/08/25 03:41:36;;;;;;;1.50;1.50;;;;;;;;;;4999556;28;20231;-56
2022/08/25 03:44:02;;;;;;;1.70;1.70;;;;;;;;;;5040502;28;20222;-56
2022/08/25 03:46:30;;;;;;;2.17;2.07;;;;;;;;;;5037041;28;20223;-56
2022/08/25 03:48:56;;;;;;;2.07;1.97;;;;;;;;;;5018389;28;20245;-56
2022/08/25 03:51:22;;;;;;;1.90;1.80;;;;;;;;;;5021619;28;20224;-56
2022/08/25 03:53:48;;;;;;;2.20;2.10;;;;;;;;;;5004756;28;20606;-56
2022/08/25 03:56:14;;;;;;;1.90;1.80;;;;;;;;;;5019087;28;20227;-56
2022/08/25 03:58:40;;;;;;;1.50;1.50;;;;;;;;;;5014205;28;20246;-56
2022/08/25 04:01:06;;;;;;;1.50;1.50;;;;;;;;;;5029436;28;20258;-55
2022/08/25 04:03:32;;;;;;;1.47;1.47;;;;;;;;;;5033531;28;20291;-55
2022/08/25 04:06:01;;;;;;;1.60;1.60;;;;;;;;;;5032379;28;20243;-56
2022/08/25 04:08:27;;;;;;;1.50;1.50;;;;;;;;;;5020767;28;20641;-56
2022/08/25 04:10:54;;;;;;;1.50;1.50;;;;;;;;;;5018101;28;20291;-56
2022/08/25 04:13:20;;;;;;;1.40;1.40;;;;;;;;;;5038680;28;20285;-56
2022/08/25 04:15:45;;;;;;;1.40;1.40;;;;;;;;;;5037978;28;20691;-56
2022/08/25 04:18:12;;;;;;;1.50;1.50;;;;;;;;;;5036368;28;20220;-57
2022/08/25 04:20:38;;;;;;;1.40;1.40;;;;;;;;;;5023592;28;20255;-56
2022/08/25 04:23:04;;;;;;;1.33;1.33;;;;;;;;;;5024107;28;20328;-56
2022/08/25 04:25:30;;;;;;;1.43;1.43;;;;;;;;;;5040626;28;20249;-56
2022/08/25 04:27:56;;;;;;;1.47;1.47;;;;;;;;;;5025568;28;20308;-57
2022/08/25 04:30:22;;;;;;;1.40;1.40;;;;;;;;;;5036740;28;20236;-55
2022/08/25 04:32:48;;;;;;;1.40;1.40;;;;;;;;;;5045906;28;20228;-58
2022/08/25 04:35:14;;;;;;;1.80;1.70;;;;;;;;;;5039468;28;20242;-57
2022/08/25 04:37:40;;;;;;;1.60;1.60;;;;;;;;;;5027638;28;20242;-56
2022/08/25 04:40:07;;;;;;;1.60;1.60;;;;;;;;;;5032060;28;21494;-55
2022/08/25 04:42:33;;;;;;;1.73;1.67;;;;;;;;;;5027590;28;20562;-57
2022/08/25 04:45:00;;;;;;;1.40;1.40;;;;;;;;;;5043614;28;21904;-55
2022/08/25 04:47:26;;;;;;;1.83;1.73;;;;;;;;;;5044545;28;20942;-57
2022/08/25 04:49:52;;;;;;;1.50;1.50;;;;;;;;;;5026725;28;20235;-57
2022/08/25 04:52:19;;;;;;;1.50;1.50;;;;;;;;;;5033433;28;20221;-59
2022/08/25 04:54:45;;;;;;;1.60;1.60;;;;;;;;;;5021224;28;20216;-57
2022/08/25 04:57:11;;;;;;;1.30;1.30;;;;;;;;;;5025730;28;20264;-57
2022/08/25 04:59:37;;;;;;;1.50;1.50;;;;;;;;;;5026407;28;20242;-56
2022/08/25 05:02:04;;;;;;;1.40;1.40;;;;;;;;;;5020255;28;20224;-57
2022/08/25 05:04:30;;;;;;;1.60;1.60;;;;;;;;;;5036019;28;20241;-55
2022/08/25 05:06:56;;;;;;;1.50;1.50;;;;;;;;;;5018708;28;20367;-56
2022/08/25 05:09:22;;;;;;;1.37;1.37;;;;;;;;;;5001585;28;20293;-57
2022/08/25 05:11:48;;;;;;;1.57;1.57;;;;;;;;;;5014310;28;20226;-58
2022/08/25 05:14:17;;;;;;;1.80;1.70;;;;;;;;;;5022865;28;20260;-57
2022/08/25 05:16:42;;;;;;;1.40;1.40;;;;;;;;;;5022497;28;20215;-58
2022/08/25 05:19:08;;;;;;;1.60;1.60;;;;;;;;;;5033658;28;20281;-58
2022/08/25 05:21:35;;;;;;;1.30;1.30;;;;;;;;;;5032409;28;20794;-58
2022/08/25 05:24:02;;;;;;;1.30;1.30;;;;;;;;;;5027865;28;20237;-59
2022/08/25 05:26:29;;;;;;;1.50;1.50;;;;;;;;;;5040528;28;20307;-58
2022/08/25 05:28:55;;;;;;;1.20;1.20;;;;;;;;;;5045677;28;20231;-58
2022/08/25 05:31:21;;;;;;;1.30;1.30;;;;;;;;;;5040902;28;20235;-58
2022/08/25 05:33:47;;;;;;;0.70;0.70;;;;;;;;;;5036842;28;20228;-58
2022/08/25 05:36:14;;;;;;;0.70;0.70;;;;;;;;;;5026396;28;20227;-58
2022/08/25 05:38:40;;;;;;;0.60;0.60;;;;;;;;;;5013646;28;26063;-58
2022/08/25 05:41:09;;;;;;;0.60;0.60;;;;;;;;;;5024964;28;20224;-59
2022/08/25 05:43:35;;;;;;;0.80;0.80;;;;;;;;;;5025147;28;20247;-58
2022/08/25 05:46:01;;;;;;;0.70;0.70;;;;;;;;;;5022087;28;20225;-58
2022/08/25 05:48:27;;;;;;;0.80;0.80;;;;;;;;;;5034387;28;20233;-58
2022/08/25 05:50:53;;;;;;;0.70;0.70;;;;;;;;;;5036432;28;20394;-58
2022/08/25 05:53:20;;;;;;;0.70;0.70;;;;;;;;;;5032728;28;20220;-57
2022/08/25 05:55:46;;;;;;;0.70;0.70;;;;;;;;;;5035924;28;20244;-58
2022/08/25 05:58:11;;;;;;;0.70;0.70;;;;;;;;;;5025721;28;20239;-58
2022/08/25 06:00:38;;;;;;;0.70;0.70;;;;;;;;;;5025697;28;21112;-58
2022/08/25 06:03:04;;;;;;;0.70;0.70;;;;;;;;;;5039959;28;20230;-58
2022/08/25 06:05:31;;;;;;;0.70;0.70;;;;;;;;;;5028563;28;20851;-58
2022/08/25 06:07:57;;;;;;;0.80;0.80;;;;;;;;;;5031026;28;20223;-58
2022/08/25 06:10:23;;;;;;;0.80;0.80;;;;;;;;;;5028223;28;20336;-58
2022/08/25 06:12:49;;;;;;;0.70;0.70;;;;;;;;;;5027841;28;21630;-58
2022/08/25 06:15:19;;;;;;;0.70;0.70;;;;;;;;;;5039518;28;20223;-58
2022/08/25 06:17:45;;;;;;;0.70;0.70;;;;;;;;;;5021348;28;20235;-58
2022/08/25 06:20:12;;;;;;;0.70;0.70;;;;;;;;;;5036829;28;20920;-58
2022/08/25 06:22:39;;;;;;;0.60;0.60;;;;;;;;;;5029479;28;20242;-58
2022/08/25 06:25:05;;;;;;;0.73;0.73;;;;;;;;;;5042674;28;20310;-58
2022/08/25 06:27:31;;;;;;;0.80;0.80;;;;;;;;;;5032700;28;20224;-58
2022/08/25 06:29:57;;;;;;;0.70;0.70;;;;;;;;;;5038197;28;20247;-57
2022/08/25 06:32:23;;;;;;;0.70;0.70;;;;;;;;;;5035594;28;20311;-58
2022/08/25 06:34:50;;;;;;;0.70;0.70;;;;;;;;;;5039549;28;20217;-58
2022/08/25 06:37:16;;;;;;;0.70;0.70;;;;;;;;;;5018200;28;20333;-57
2022/08/25 06:39:42;;;;;;;0.70;0.70;;;;;;;;;;5017940;28;20231;-58
2022/08/25 06:42:08;;;;;;;0.80;0.80;;;;;;;;;;5023812;28;20221;-57
2022/08/25 06:44:35;;;;;;;0.70;0.70;;;;;;;;;;5026552;28;20227;-58
2022/08/25 06:47:01;;;;;;;0.73;0.73;;;;;;;;;;5028656;28;20219;-57
2022/08/25 06:49:27;;;;;;;0.77;0.77;;;;;;;;;;5031225;28;20648;-58
2022/08/25 06:51:53;;;;;;;0.70;0.70;;;;;;;;;;5028978;28;20208;-57
2022/08/25 06:54:19;;;;;;;0.70;0.70;;;;;;;;;;5019999;28;20265;-57
2022/08/25 06:56:46;;;;;;;0.80;0.80;;;;;;;;;;5011800;28;20334;-58
2022/08/25 06:59:12;;;;;;;0.80;0.80;;;;;;;;;;5028174;28;20222;-57
2022/08/25 07:01:38;;;;;;;0.80;0.80;;;;;;;;;;5019032;28;20232;-58
2022/08/25 07:04:04;;;;;;;0.80;0.80;;;;;;;;;;5032849;28;20246;-57
2022/08/25 07:06:31;;;;;;;0.90;0.90;;;;;;;;;;5032949;28;20925;-57
2022/08/25 07:08:57;;;;;;;0.90;0.90;;;;;;;;;;5025078;28;20224;-57
2022/08/25 07:11:23;;;;;;;1.00;1.00;;;;;;;;;;5021730;28;20241;-58
2022/08/25 07:13:49;;;;;;;1.00;1.00;;;;;;;;;;5007203;28;20725;-58
2022/08/25 07:16:15;;;;;;;0.90;0.90;;;;;;;;;;5032395;28;20285;-57
2022/08/25 07:18:41;;;;;;;1.00;1.00;;;;;;;;;;5032831;28;20230;-58
2022/08/25 07:21:07;;;;;;;0.93;0.93;;;;;;;;;;5035149;28;20231;-58
2022/08/25 07:23:33;;;;;;;1.00;1.00;;;;;;;;;;5028413;28;20772;-58
2022/08/25 07:26:12;;;;;;;1.00;1.00;;;;;;;;;;5036084;28;20715;-58
2022/08/25 07:28:38;;;;;;;1.00;1.00;;;;;;;;;;5034358;28;22578;-57
2022/08/25 07:31:04;;;;;;;1.00;1.00;;;;;;;;;;5022331;28;20264;-58
2022/08/25 07:33:30;;;;;;;1.00;1.00;;;;;;;;;;5027334;28;20235;-58
2022/08/25 07:35:56;;;;;;;1.30;1.30;;;;;;;;;;5031870;28;20690;-58
2022/08/25 07:38:22;;;;;;;1.90;1.80;;;;;;;;;;5030464;28;20683;-58
2022/08/25 07:40:53;;;;;;;1.90;1.80;;;;;;;;;;5028536;28;20256;-58
2022/08/25 07:43:19;;;;;;;1.90;1.80;;;;;;;;;;5032011;28;20323;-58
2022/08/25 07:45:45;;;;;;;1.88;1.77;;;;;;;;;;5039866;28;20380;-58
2022/08/25 07:48:11;;;;;;;1.90;1.80;;;;;;;;;;5039233;28;20235;-58
2022/08/25 07:50:38;;;;;;;2.00;1.90;;;;;;;;;;5017504;28;20219;-57
2022/08/25 07:53:04;;;;;;;2.10;2.00;;;;;;;;;;5019827;28;20226;-58
2022/08/25 07:55:30;;;;;;;1.95;1.85;;;;;;;;;;5034676;28;20704;-58
2022/08/25 07:57:58;;;;;;;2.00;1.90;;;;;;;;;;5040364;28;20223;-58
2022/08/25 08:00:26;;;;;;;2.00;1.90;;;;;;;;;;5033168;28;20580;-58
2022/08/25 08:02:52;;;;;;;1.83;1.73;;;;;;;;;;5038289;28;20707;-58
2022/08/25 08:05:18;;;;;;;1.90;1.80;;;;;;;;;;5008130;28;20227;-57
2022/08/25 08:07:44;;;;;;;1.80;1.70;;;;;;;;;;5032015;28;21823;-58
2022/08/25 08:10:10;;;;;;;1.90;1.80;;;;;;;;;;5028393;28;21331;-58
2022/08/25 08:12:37;;;;;;;1.50;1.50;;;;;;;;;;5021032;28;20223;-57
2022/08/25 08:15:03;;;;;;;1.90;1.80;;;;;;;;;;5032611;28;20256;-58
2022/08/25 08:17:30;;;;;;;1.80;1.70;;;;;;;;;;5029966;28;20307;-58
2022/08/25 08:19:56;;;;;;;1.90;1.80;;;;;;;;;;5023679;28;20216;-58
2022/08/25 08:22:22;;;;;;;1.90;1.80;;;;;;;;;;5038505;28;20309;-58
2022/08/25 08:24:48;;;;;;;1.90;1.80;;;;;;;;;;5030671;28;20216;-58
2022/08/25 08:27:14;;;;;;;1.90;1.80;;;;;;;;;;5037646;28;20233;-58
2022/08/25 08:29:40;;;;;;;1.70;1.70;;;;;;;;;;5037320;28;20228;-58
2022/08/25 08:32:07;;;;;;;1.77;1.70;;;;;;;;;;5041574;28;20212;-58
2022/08/25 08:34:33;;;;;;;1.80;1.70;;;;;;;;;;5041560;28;20303;-58
2022/08/25 08:36:59;;;;;;;1.80;1.70;;;;;;;;;;5038397;28;20239;-58
2022/08/25 08:39:25;;;;;;;1.50;1.50;;;;;;;;;;5029497;28;20259;-58
2022/08/25 08:44:40;;;;;;;1.80;1.70;;;;;;;;;;5038447;28;20228;-57
2022/08/25 08:47:25;;;;;;;1.90;1.80;;;;;;;;;;5037520;28;20223;-57
2022/08/25 08:49:51;;;;;;;1.90;1.80;;;;;;;;;;5041487;28;20230;-58
2022/08/25 08:52:17;;;;;;;1.75;1.70;;;;;;;;;;5037772;28;20745;-57
2022/08/25 08:54:43;;;;;;;1.60;1.60;;;;;;;;;;5039710;28;20472;-57
2022/08/25 08:57:11;;;;;;;1.30;1.30;;;;;;;;;;5034460;28;20228;-57
2022/08/25 08:59:46;;;;;;;1.40;1.40;;;;;;;;;;5023685;28;20224;-56
2022/08/25 09:02:13;;;;;;;1.40;1.40;;;;;;;;;;5042326;28;20257;-57
2022/08/25 09:04:46;;;;;;;1.10;1.10;;;;;;;;;;5018600;28;20225;-56
2022/08/25 09:07:14;;;;;;;1.70;1.70;;;;;;;;;;5037831;28;20220;-57
2022/08/25 09:09:40;;;;;;;1.63;1.63;;;;;;;;;;5019490;28;20239;-57
2022/08/25 09:12:09;;;;;;;1.60;1.60;;;;;;;;;;5038871;28;20255;-58
2022/08/25 09:14:38;;;;;;;1.50;1.50;;;;;;;;;;5058047;28;20223;-57
2022/08/25 09:17:25;;;;;;;1.02;1.02;;;;;;;;;;5037963;28;20222;-57
2022/08/25 09:19:54;;;;;;;0.98;0.98;;;;;;;;;;5039794;28;20271;-58
2022/08/25 09:22:23;;;;;;;0.90;0.90;;;;;;;;;;5032768;28;20275;-58
2022/08/25 09:24:56;;;;;;;1.63;1.63;;;;;;;;;;5040099;28;20234;-58
2022/08/25 09:27:35;;;;;;;1.35;1.35;;;;;;;;;;5036567;28;20315;-57
2022/08/25 09:30:08;;;;;;;1.40;1.40;;;;;;;;;;5028405;28;20228;-58
2022/08/25 09:32:36;;;;;;;1.40;1.40;;;;;;;;;;5040707;28;20554;-57
2022/08/25 09:35:02;;;;;;;1.20;1.20;;;;;;;;;;5018622;28;20764;-55
2022/08/25 09:37:28;;;;;;;1.27;1.27;;;;;;;;;;5032162;28;20779;-58
2022/08/25 09:39:54;;;;;;;0.80;0.80;;;;;;;;;;5032269;28;20215;-57
2022/08/25 09:42:20;;;;;;;1.15;1.15;;;;;;;;;;5044513;28;20329;-58
2022/08/25 09:44:47;;;;;;;1.20;1.20;;;;;;;;;;5031522;28;20830;-57
2022/08/25 09:47:29;;;;;;;1.20;1.20;;;;;;;;;;5034748;28;20307;-57
2022/08/25 09:49:59;;;;;;;1.20;1.20;;;;;;;;;;5033786;28;20240;-58
2022/08/25 09:52:30;;;;;;;1.20;1.20;;;;;;;;;;5022552;28;20230;-58
2022/08/25 09:54:56;;;;;;;1.20;1.20;;;;;;;;;;5032367;28;20243;-57
2022/08/25 09:57:35;;;;;;;1.20;1.20;;;;;;;;;;5029232;28;20219;-58
2022/08/25 10:00:11;;;;;;;1.15;1.15;;;;;;;;;;5036193;28;20315;-57
2022/08/25 10:02:37;;;;;;;1.10;1.10;;;;;;;;;;5029444;28;20210;-57
2022/08/25 10:05:23;;;;;;;1.10;1.10;;;;;;;;;;5024707;28;20696;-57
2022/08/25 10:07:50;;;;;;;1.10;1.10;;;;;;;;;;5030435;28;20225;-58
2022/08/25 10:10:17;;;;;;;1.08;1.08;;;;;;;;;;5031109;28;20720;-57
2022/08/25 10:12:45;;;;;;;1.10;1.10;;;;;;;;;;5042220;28;20220;-57
2022/08/25 10:15:17;;;;;;;1.00;1.00;;;;;;;;;;5033805;28;20230;-57
2022/08/25 10:17:43;;;;;;;0.90;0.90;;;;;;;;;;5026444;28;20232;-57
2022/08/25 10:20:09;;;;;;;0.98;0.98;;;;;;;;;;5030302;28;20635;-58
2022/08/25 10:22:35;;;;;;;1.00;1.00;;;;;;;;;;5031748;28;20250;-58
2022/08/25 10:25:03;;;;;;;1.00;1.00;;;;;;;;;;5002997;28;20336;-58
2022/08/25 10:27:29;;;;;;;1.20;1.20;;;;;;;;;;5043358;28;20219;-58
2022/08/25 10:30:02;;;;;;;1.30;1.30;;;;;;;;;;5037717;28;20723;-58
2022/08/25 10:32:28;;;;;;;1.10;1.10;;;;;;;;;;5024818;28;20273;-58
2022/08/25 10:34:55;;;;;;;1.20;1.20;;;;;;;;;;5040433;28;20220;-58
2022/08/25 10:37:24;;;;;;;1.10;1.10;;;;;;;;;;5033852;28;20243;-57
2022/08/25 10:39:56;;;;;;;1.00;1.00;;;;;;;;;;5038123;28;20298;-58
2022/08/25 10:42:29;;;;;;;1.10;1.10;;;;;;;;;;5037690;28;20724;-58
2022/08/25 10:48:18;;;;;;;1.00;1.00;;;;;;;;;;5031792;28;20235;-58
2022/08/25 10:51:03;;;;;;;1.00;1.00;;;;;;;;;;5029652;28;20311;-58
2022/08/25 10:53:34;;;;;;;1.17;1.17;;;;;;;;;;5044033;28;20715;-58
2022/08/25 10:56:15;;;;;;;1.10;1.10;;;;;;;;;;5036198;28;20223;-58
2022/08/25 10:58:51;;;;;;;1.20;1.20;;;;;;;;;;5023998;28;20887;-58
2022/08/25 11:01:23;;;;;;;1.10;1.10;;;;;;;;;;5034901;28;20517;-58
2022/08/25 11:03:50;;;;;;;1.20;1.20;;;;;;;;;;5019778;28;20462;-58
2022/08/25 11:06:18;;;;;;;0.80;0.80;;;;;;;;;;5047114;28;20227;-58
2022/08/25 11:09:04;;;;;;;0.70;0.70;;;;;;;;;;5026856;28;20233;-59
2022/08/25 11:11:37;;;;;;;0.70;0.70;;;;;;;;;;5039346;28;20333;-58
2022/08/25 11:14:10;;;;;;;1.00;1.00;;;;;;;;;;5018428;28;20224;-58
2022/08/25 11:16:42;;;;;;;1.10;1.10;;;;;;;;;;5028164;28;20224;-58
2022/08/25 11:19:08;;;;;;;1.20;1.20;;;;;;;;;;5021914;28;20482;-58
2022/08/25 11:21:51;;;;;;;1.10;1.10;;;;;;;;;;5041721;28;20223;-58
2022/08/25 11:24:20;;;;;;;1.10;1.10;;;;;;;;;;5018425;28;20224;-58
2022/08/25 11:26:47;;;;;;;1.10;1.10;;;;;;;;;;5035739;28;20226;-58
2022/08/25 11:29:17;;;;;;;1.10;1.10;;;;;;;;;;5027101;28;20239;-58
2022/08/25 11:31:44;;;;;;;1.10;1.10;;;;;;;;;;5021956;28;20315;-57
2022/08/25 11:34:13;;;;;;;1.10;1.10;;;;;;;;;;5010702;28;20220;-58
2022/08/25 11:36:42;;;;;;;1.17;1.17;;;;;;;;;;5025796;28;20232;-58
2022/08/25 11:39:11;;;;;;;1.17;1.17;;;;;;;;;;5041213;28;20291;-58
2022/08/25 11:41:36;;;;;;;1.23;1.23;;;;;;;;;;5034670;28;20227;-58
2022/08/25 11:44:21;;;;;;;1.10;1.10;;;;;;;;;;5041197;28;20227;-58
2022/08/25 11:46:59;;;;;;;1.15;1.15;;;;;;;;;;5026598;28;20243;-57
2022/08/25 11:49:45;;;;;;;1.10;1.10;;;;;;;;;;5022619;28;20225;-57
2022/08/25 11:52:30;;;;;;;1.10;1.10;;;;;;;;;;5030472;28;20641;-58
2022/08/25 11:54:55;;;;;;;1.20;1.20;;;;;;;;;;5034147;28;20697;-58
2022/08/25 11:57:24;;;;;;;1.10;1.10;;;;;;;;;;5019256;28;20228;-57
2022/08/25 11:59:50;;;;;;;1.20;1.20;;;;;;;;;;5025181;28;20212;-58
2022/08/25 12:02:35;;;;;;;1.05;1.05;;;;;;;;;;5019366;28;20682;-58
2022/08/25 12:05:02;;;;;;;1.20;1.20;;;;;;;;;;5029961;28;20726;-58
2022/08/25 12:07:29;;;;;;;1.13;1.13;;;;;;;;;;5039749;28;20299;-58
2022/08/25 12:09:55;;;;;;;1.10;1.10;;;;;;;;;;5029068;28;20232;-58
2022/08/25 12:12:27;;;;;;;1.10;1.10;;;;;;;;;;5027885;28;20226;-58
2022/08/25 12:14:53;;;;;;;1.00;1.00;;;;;;;;;;5019318;28;20228;-58
2022/08/25 12:17:21;;;;;;;0.80;0.80;;;;;;;;;;5034949;28;20708;-57
2022/08/25 12:19:48;;;;;;;0.90;0.90;;;;;;;;;;5032994;28;20214;-58
2022/08/25 12:22:21;;;;;;;0.90;0.90;;;;;;;;;;5021042;28;20219;-58
2022/08/25 12:24:49;;;;;;;0.90;0.90;;;;;;;;;;5037404;28;20223;-58
2022/08/25 12:27:18;;;;;;;0.90;0.90;;;;;;;;;;5033617;28;20226;-58
2022/08/25 12:29:52;;;;;;;0.95;0.95;;;;;;;;;;5026647;28;20319;-58
2022/08/25 12:32:21;;;;;;;1.00;1.00;;;;;;;;;;5024849;28;20238;-58
2022/08/25 12:35:02;;;;;;;0.80;0.80;;;;;;;;;;5014606;28;20695;-57
2022/08/25 12:37:28;;;;;;;0.90;0.90;;;;;;;;;;5015811;28;20884;-56
2022/08/25 12:40:01;;;;;;;0.95;0.95;;;;;;;;;;5037113;28;20219;-57
2022/08/25 12:42:28;;;;;;;0.90;0.90;;;;;;;;;;5006517;28;20220;-57
2022/08/25 12:45:14;;;;;;;0.90;0.90;;;;;;;;;;5029882;28;20272;-57
2022/08/25 12:47:41;;;;;;;0.90;0.90;;;;;;;;;;5026483;28;20276;-57
2022/08/25 12:50:27;;;;;;;0.90;0.90;;;;;;;;;;5021119;28;20783;-58
2022/08/25 12:52:53;;;;;;;0.80;0.80;;;;;;;;;;5010987;28;20228;-57
2022/08/25 12:55:20;;;;;;;0.90;0.90;;;;;;;;;;5024207;28;20227;-56
2022/08/25 12:57:49;;;;;;;0.90;0.90;;;;;;;;;;5017175;28;20224;-57
2022/08/25 13:00:16;;;;;;;1.10;1.10;;;;;;;;;;5012510;28;20767;-56
2022/08/25 13:02:48;;;;;;;1.00;1.00;;;;;;;;;;5023868;28;20219;-57
2022/08/25 13:05:33;;;;;;;1.00;1.00;;;;;;;;;;5004225;28;20219;-57
2022/08/25 13:08:14;;;;;;;1.10;1.10;;;;;;;;;;5025818;28;20261;-57
2022/08/25 13:10:43;;;;;;;1.00;1.00;;;;;;;;;;5023231;28;20230;-57
2022/08/25 13:13:28;;;;;;;1.00;1.00;;;;;;;;;;5030821;28;20246;-57
2022/08/25 13:15:58;;;;;;;1.10;1.10;;;;;;;;;;5037367;28;22210;-56
2022/08/25 13:18:28;;;;;;;1.10;1.10;;;;;;;;;;5027998;28;20255;-57
2022/08/25 13:20:55;;;;;;;1.10;1.10;;;;;;;;;;5026613;28;20224;-57
2022/08/25 13:23:22;;;;;;;1.10;1.10;;;;;;;;;;5033394;28;20334;-56
2022/08/25 13:25:49;;;;;;;1.20;1.20;;;;;;;;;;5025269;28;20226;-56
2022/08/25 13:28:32;;;;;;;1.20;1.20;;;;;;;;;;5044778;28;21970;-57
2022/08/25 13:31:03;;;;;;;1.20;1.20;;;;;;;;;;5031442;28;20563;-57
2022/08/25 13:33:29;;;;;;;1.20;1.20;;;;;;;;;;5032591;28;20241;-57
2022/08/25 13:38:40;;;;;;;1.13;1.13;;;;;;;;;;5032673;28;20250;-58
2022/08/25 13:41:06;;;;;;;1.40;1.40;;;;;;;;;;5036640;28;20212;-56
2022/08/25 13:43:32;;;;;;;1.30;1.30;;;;;;;;;;5021827;28;20862;-58
2022/08/25 13:45:58;;;;;;;1.30;1.30;;;;;;;;;;5026710;28;20219;-56
2022/08/25 13:48:31;;;;;;;1.20;1.20;;;;;;;;;;5021482;28;20759;-58
2022/08/25 13:51:05;;;;;;;1.20;1.20;;;;;;;;;;5025256;28;20234;-56
2022/08/25 13:53:30;;;;;;;1.20;1.20;;;;;;;;;;5038281;28;20222;-56
2022/08/25 13:56:00;;;;;;;1.10;1.10;;;;;;;;;;5034502;28;20223;-58
2022/08/25 13:58:30;;;;;;;0.98;0.98;;;;;;;;;;5039935;28;20873;-57
2022/08/25 14:01:15;;;;;;;1.13;1.13;;;;;;;;;;5032448;28;20696;-57
2022/08/25 14:03:42;;;;;;;1.00;1.00;;;;;;;;;;5011412;28;20243;-57
2022/08/25 14:06:14;;;;;;;0.95;0.95;;;;;;;;;;5001076;28;20223;-58
2022/08/25 14:08:42;;;;;;;1.00;1.00;;;;;;;;;;5020115;28;20338;-57
2022/08/25 14:11:34;;;;;;;1.00;1.00;;;;;;;;;;5022352;28;20220;-58
2022/08/25 14:14:01;;;;;;;1.20;1.20;;;;;;;;;;4990564;28;20240;-57
2022/08/25 14:16:27;;;;;;;1.30;1.30;;;;;;;;;;5023038;28;20642;-57
2022/08/25 14:18:56;;;;;;;1.00;1.00;;;;;;;;;;5021074;28;20298;-57
2022/08/25 14:21:25;;;;;;;1.00;1.00;;;;;;;;;;5023506;28;20941;-58
2022/08/25 14:23:51;;;;;;;1.02;1.02;;;;;;;;;;5013519;28;20248;-59
2022/08/25 14:26:17;;;;;;;0.90;0.90;;;;;;;;;;5022309;28;20230;-57
2022/08/25 14:28:43;;;;;;;1.00;1.00;;;;;;;;;;5017760;28;20693;-57
2022/08/25 14:31:12;;;;;;;1.02;1.02;;;;;;;;;;5032341;28;20630;-57
2022/08/25 14:33:40;;;;;;;1.00;1.00;;;;;;;;;;5007721;28;20229;-57
2022/08/25 14:36:06;;;;;;;1.00;1.00;;;;;;;;;;5038792;28;21260;-57
2022/08/25 14:38:32;;;;;;;1.05;1.05;;;;;;;;;;5025337;28;20231;-58
2022/08/25 14:40:58;;;;;;;1.00;1.00;;;;;;;;;;5034154;28;20678;-58
2022/08/25 14:43:24;;;;;;;1.00;1.00;;;;;;;;;;5034334;28;20226;-57
2022/08/25 14:45:50;;;;;;;1.00;1.00;;;;;;;;;;5030231;28;20317;-58
2022/08/25 14:48:35;;;;;;;1.00;1.00;;;;;;;;;;5015638;28;20215;-58
2022/08/25 14:51:02;;;;;;;1.00;1.00;;;;;;;;;;5021717;28;20702;-56
2022/08/25 14:53:28;;;;;;;1.00;1.00;;;;;;;;;;5023134;28;20708;-58
2022/08/25 14:55:54;;;;;;;1.00;1.00;;;;;;;;;;5028802;28;20608;-58
2022/08/25 14:58:21;;;;;;;0.90;0.90;;;;;;;;;;5019933;28;20222;-58
2022/08/25 15:00:47;;;;;;;0.93;0.93;;;;;;;;;;5024522;28;20223;-57